createdAt,value
2023-03-14T00:01:19.487Z,11.40
2023-03-14T00:03:46.149Z,10.60
2023-03-14T00:06:14.378Z,11.70
2023-03-14T00:08:42.300Z,11.40
2023-03-14T00:11:12.407Z,12.40
2023-03-14T00:13:39.823Z,11.20
2023-03-14T00:16:12.403Z,11.60
2023-03-14T00:18:39.894Z,11.90
2023-03-14T00:21:08.524Z,11.90
2023-03-14T00:23:37.964Z,12.40
2023-03-14T00:26:10.802Z,11.50
2023-03-14T00:28:38.186Z,11.40
2023-03-14T00:31:09.842Z,11.80
2023-03-14T00:33:37.254Z,11.90
2023-03-14T00:36:07.392Z,11.20
2023-03-14T00:38:35.141Z,12.40
2023-03-14T00:41:07.099Z,11.90
2023-03-14T00:43:34.066Z,11.00
2023-03-14T00:46:00.776Z,10.60
2023-03-14T00:48:28.167Z,11.20
2023-03-14T00:50:55.197Z,12.30
2023-03-14T00:53:22.437Z,11.10
2023-03-14T00:55:49.954Z,9.90
2023-03-14T00:58:17.994Z,11.00
2023-03-14T01:00:46.353Z,10.90
2023-03-14T01:03:15.271Z,11.00
2023-03-14T01:05:42.953Z,11.20
2023-03-14T01:08:09.782Z,11.40
2023-03-14T01:10:40.585Z,10.80
2023-03-14T01:13:08.086Z,9.70
2023-03-14T01:15:37.784Z,9.30
2023-03-14T01:18:05.322Z,9.90
2023-03-14T01:20:32.138Z,9.30
2023-03-14T01:22:59.938Z,9.10
2023-03-14T01:25:27.287Z,8.80
2023-03-14T01:27:54.795Z,8.50
2023-03-14T01:30:21.997Z,8.30
2023-03-14T01:32:48.804Z,8.60
2023-03-14T01:35:15.648Z,8.60
2023-03-14T01:37:42.534Z,7.90
2023-03-14T01:40:15.142Z,9.10
2023-03-14T01:42:46.856Z,8.40
2023-03-14T01:45:51.692Z,8.30
2023-03-14T01:48:18.494Z,7.40
2023-03-14T01:50:45.430Z,8.10
2023-03-14T01:53:12.235Z,6.80
2023-03-14T01:55:39.286Z,7.80
2023-03-14T01:58:06.629Z,6.90
2023-03-14T02:00:33.441Z,7.70
2023-03-14T02:03:06.365Z,7.60
2023-03-14T02:05:38.352Z,7.90
2023-03-14T02:08:14.481Z,7.00
2023-03-14T02:11:01.379Z,6.40
2023-03-14T02:13:44.325Z,6.70
2023-03-14T02:16:26.501Z,6.60
2023-03-14T02:19:32.671Z,6.00
2023-03-14T02:22:21.570Z,7.00
2023-03-14T02:25:10.447Z,6.30
2023-03-14T02:27:37.517Z,6.10
2023-03-14T02:30:12.135Z,6.50
2023-03-14T02:32:44.589Z,5.60
2023-03-14T02:35:19.954Z,7.00
2023-03-14T02:37:56.303Z,6.30
2023-03-14T02:40:23.715Z,7.10
2023-03-14T02:42:51.720Z,6.40
2023-03-14T02:45:18.738Z,6.10
2023-03-14T02:47:51.778Z,6.50
2023-03-14T02:50:23.666Z,6.70
2023-03-14T02:52:51.405Z,5.50
2023-03-14T02:55:22.700Z,5.90
2023-03-14T02:57:51.583Z,6.90
2023-03-14T03:00:18.747Z,6.70
2023-03-14T03:02:46.195Z,6.60
2023-03-14T03:05:14.861Z,6.60
2023-03-14T03:07:41.535Z,7.30
2023-03-14T03:10:09.014Z,6.10
2023-03-14T03:12:35.769Z,6.50
2023-03-14T03:15:02.442Z,6.90
2023-03-14T03:17:30.125Z,6.20
2023-03-14T03:19:56.920Z,5.80
2023-03-14T03:22:23.545Z,4.90
2023-03-14T03:24:50.224Z,6.30
2023-03-14T03:27:16.866Z,6.00
2023-03-14T03:29:43.696Z,5.50
2023-03-14T03:32:11.019Z,6.70
2023-03-14T03:34:37.725Z,6.10
2023-03-14T03:37:04.542Z,6.60
2023-03-14T03:39:33.966Z,5.60
2023-03-14T03:42:00.705Z,6.10
2023-03-14T03:44:28.233Z,5.10
2023-03-14T03:46:55.019Z,6.30
2023-03-14T03:49:21.686Z,6.90
2023-03-14T03:51:48.539Z,5.30
2023-03-14T03:54:15.599Z,7.10
2023-03-14T03:56:42.347Z,5.40
2023-03-14T03:59:09.051Z,6.60
2023-03-14T04:01:35.772Z,6.90
2023-03-14T04:04:02.816Z,6.30
2023-03-14T04:06:30.040Z,7.30
2023-03-14T04:08:58.939Z,4.90
2023-03-14T04:11:33.012Z,6.40
2023-03-14T04:14:21.517Z,5.60
2023-03-14T04:16:52.909Z,4.20
2023-03-14T04:19:21.827Z,6.40
2023-03-14T04:21:49.312Z,7.00
2023-03-14T04:24:16.235Z,6.50
2023-03-14T04:26:45.674Z,6.40
2023-03-14T04:29:13.508Z,6.60
2023-03-14T04:31:41.639Z,7.00
2023-03-14T04:34:08.605Z,7.40
2023-03-14T04:36:40.562Z,6.30
2023-03-14T04:39:12.858Z,6.20
2023-03-14T04:41:46.331Z,6.80
2023-03-14T04:44:13.089Z,7.30
2023-03-14T04:46:41.322Z,6.80
2023-03-14T04:49:08.024Z,7.20
2023-03-14T04:51:34.992Z,6.80
2023-03-14T04:54:03.895Z,6.00
2023-03-14T04:56:30.573Z,5.90
2023-03-14T04:58:57.922Z,7.30
2023-03-14T05:01:25.122Z,6.80
2023-03-14T05:04:10.698Z,4.40
2023-03-14T05:06:52.533Z,5.90
2023-03-14T05:09:33.941Z,6.00
2023-03-14T05:12:21.997Z,4.60
2023-03-14T05:15:11.816Z,6.10
2023-03-14T05:17:54.038Z,4.60
2023-03-14T05:20:57.951Z,4.10
2023-03-14T05:26:18.093Z,6.50
2023-03-14T05:29:17.251Z,5.40
2023-03-14T05:31:58.350Z,5.60
2023-03-14T05:34:51.203Z,5.40
2023-03-14T05:37:31.749Z,4.70
2023-03-14T05:40:21.030Z,4.60
2023-03-14T05:43:08.961Z,5.10
2023-03-14T05:45:56.555Z,5.90
2023-03-14T05:48:39.278Z,5.30
2023-03-14T05:51:08.617Z,5.60
2023-03-14T05:53:58.225Z,5.20
2023-03-14T05:56:42.624Z,5.00
2023-03-14T05:59:27.770Z,5.40
2023-03-14T06:02:03.965Z,5.00
2023-03-14T06:04:36.524Z,5.40
2023-03-14T06:07:03.644Z,5.60
2023-03-14T06:09:31.610Z,5.90
2023-03-14T06:11:59.960Z,6.00
2023-03-14T06:14:27.264Z,6.50
2023-03-14T06:16:54.154Z,5.40
2023-03-14T06:19:21.945Z,5.80
2023-03-14T06:21:48.681Z,6.20
2023-03-14T06:24:15.801Z,5.90
2023-03-14T06:26:45.853Z,6.30
2023-03-14T06:29:14.457Z,6.30
2023-03-14T06:31:41.636Z,6.40
2023-03-14T06:34:08.999Z,6.20
2023-03-14T06:36:35.683Z,6.70
2023-03-14T06:39:02.756Z,4.70
2023-03-14T06:41:30.799Z,6.10
2023-03-14T06:43:58.615Z,5.80
2023-03-14T06:46:25.440Z,5.60
2023-03-14T06:48:53.318Z,5.40
2023-03-14T06:51:20.572Z,4.80
2023-03-14T06:53:47.620Z,4.70
2023-03-14T06:56:15.554Z,4.60
2023-03-14T06:58:42.530Z,5.20
2023-03-14T07:01:28.620Z,5.20
2023-03-14T07:03:58.235Z,6.00
2023-03-14T07:06:26.138Z,5.50
2023-03-14T07:08:53.259Z,5.50
2023-03-14T07:11:20.234Z,5.60
2023-03-14T07:13:47.350Z,5.50
2023-03-14T07:16:15.792Z,5.70
2023-03-14T07:18:42.532Z,4.80
2023-03-14T07:21:10.360Z,4.30
2023-03-14T07:23:37.646Z,4.30
2023-03-14T07:26:04.417Z,4.30
2023-03-14T07:28:31.688Z,4.00
2023-03-14T07:31:10.733Z,4.30
2023-03-14T07:33:38.302Z,3.90
2023-03-14T07:36:06.228Z,3.70
2023-03-14T07:38:33.065Z,4.30
2023-03-14T07:41:11.967Z,4.60
2023-03-14T07:43:45.616Z,4.10
2023-03-14T07:46:12.846Z,4.60
2023-03-14T07:48:39.582Z,4.20
2023-03-14T07:51:06.710Z,4.20
2023-03-14T07:53:33.682Z,4.20
2023-03-14T07:56:00.423Z,4.30
2023-03-14T07:58:27.139Z,4.10
2023-03-14T08:00:54.163Z,4.20
2023-03-14T08:03:22.010Z,5.70
2023-03-14T08:05:50.662Z,5.40
2023-03-14T08:08:20.489Z,4.40
2023-03-14T08:10:47.789Z,4.60
2023-03-14T08:13:14.842Z,4.70
2023-03-14T08:15:41.687Z,3.80
2023-03-14T08:18:08.581Z,4.30
2023-03-14T08:20:36.739Z,4.50
2023-03-14T08:23:03.428Z,4.40
2023-03-14T08:25:30.762Z,4.60
2023-03-14T08:27:57.768Z,4.20
2023-03-14T08:30:24.764Z,4.50
2023-03-14T08:32:51.615Z,3.30
2023-03-14T08:35:18.622Z,3.60
2023-03-14T08:37:45.421Z,3.80
2023-03-14T08:40:12.950Z,2.90
2023-03-14T08:42:40.899Z,2.50
2023-03-14T08:45:09.126Z,3.10
2023-03-14T08:47:35.776Z,2.80
2023-03-14T08:50:03.510Z,3.10
2023-03-14T08:52:32.028Z,2.30
2023-03-14T08:54:59.854Z,2.90
2023-03-14T08:57:28.652Z,2.70
2023-03-14T08:59:56.805Z,3.10
2023-03-14T09:02:24.961Z,3.40
2023-03-14T09:04:52.191Z,3.00
2023-03-14T09:07:44.726Z,3.40
2023-03-14T09:10:12.276Z,3.00
2023-03-14T09:12:38.946Z,3.60
2023-03-14T09:15:06.123Z,3.10
2023-03-14T09:17:33.175Z,2.70
2023-03-14T09:20:00.692Z,2.90
2023-03-14T09:22:27.837Z,3.00
2023-03-14T09:24:54.469Z,2.90
2023-03-14T09:27:21.057Z,3.00
2023-03-14T09:29:47.773Z,2.60
2023-03-14T09:32:14.450Z,2.70
2023-03-14T09:34:41.097Z,2.70
2023-03-14T09:37:07.761Z,2.70
2023-03-14T09:39:34.476Z,6.10
2023-03-14T09:42:06.061Z,4.50
2023-03-14T09:44:43.597Z,7.90
2023-03-14T09:47:14.957Z,11.00
2023-03-14T09:49:43.075Z,10.30
2023-03-14T09:52:17.983Z,7.40
2023-03-14T09:54:52.200Z,6.20
2023-03-14T09:57:21.517Z,5.00
2023-03-14T09:59:50.833Z,4.80
2023-03-14T10:02:23.068Z,7.00
2023-03-14T10:04:52.334Z,4.60
2023-03-14T10:07:31.066Z,4.60
2023-03-14T10:09:59.104Z,4.60
2023-03-14T10:12:34.546Z,2.80
2023-03-14T10:15:09.983Z,4.10
2023-03-14T10:17:47.560Z,4.00
2023-03-14T10:20:28.728Z,3.70
2023-03-14T10:22:56.299Z,3.30
2023-03-14T10:25:32.384Z,3.60
2023-03-14T10:27:59.703Z,2.90
2023-03-14T10:30:35.821Z,3.50
2023-03-14T10:33:11.361Z,2.70
2023-03-14T10:35:38.200Z,3.00
2023-03-14T10:38:05.362Z,2.30
2023-03-14T10:40:35.311Z,3.00
2023-03-14T10:43:06.052Z,2.80
2023-03-14T10:45:38.048Z,2.60
2023-03-14T10:48:24.245Z,2.70
2023-03-14T10:51:04.670Z,3.30
2023-03-14T10:53:41.887Z,2.50
2023-03-14T10:56:12.205Z,3.60
2023-03-14T10:58:45.005Z,2.30
2023-03-14T11:01:42.729Z,2.60
2023-03-14T11:04:36.999Z,3.10
2023-03-14T11:07:12.598Z,2.60
2023-03-14T11:09:48.370Z,2.30
2023-03-14T11:12:36.477Z,2.50
2023-03-14T11:15:28.877Z,2.30
2023-03-14T11:18:17.434Z,3.20
2023-03-14T11:20:44.158Z,2.70
2023-03-14T11:23:19.049Z,3.50
2023-03-14T11:26:02.640Z,3.60
2023-03-14T11:28:43.902Z,3.10
2023-03-14T11:31:33.252Z,2.40
2023-03-14T11:34:13.889Z,2.50
2023-03-14T11:36:45.092Z,2.60
2023-03-14T11:39:16.139Z,2.50
2023-03-14T11:41:47.462Z,3.20
2023-03-14T11:44:21.455Z,3.70
2023-03-14T11:47:02.938Z,3.90
2023-03-14T11:49:39.917Z,4.20
2023-03-14T11:52:22.533Z,3.00
2023-03-14T11:55:08.242Z,2.80
2023-03-14T11:57:36.343Z,2.70
2023-03-14T12:00:20.259Z,2.40
2023-03-14T12:02:54.025Z,3.10
2023-03-14T12:05:32.814Z,2.50
2023-03-14T12:08:08.733Z,2.80
2023-03-14T12:10:46.344Z,2.60
2023-03-14T12:13:14.898Z,2.70
2023-03-14T12:16:04.089Z,2.80
2023-03-14T12:18:34.187Z,2.90
2023-03-14T12:21:03.706Z,3.30
2023-03-14T12:23:37.517Z,3.20
2023-03-14T12:26:17.608Z,2.50
2023-03-14T12:29:15.888Z,3.00
2023-03-14T12:31:47.698Z,2.70
2023-03-14T12:34:14.424Z,2.60
2023-03-14T12:36:50.817Z,2.90
2023-03-14T12:39:36.395Z,2.50
2023-03-14T12:42:24.030Z,2.50
2023-03-14T12:44:54.002Z,2.80
2023-03-14T12:47:20.631Z,2.60
2023-03-14T12:49:54.306Z,2.70
2023-03-14T12:52:29.015Z,2.90
2023-03-14T12:55:14.521Z,2.50
2023-03-14T12:57:54.020Z,2.60
2023-03-14T13:00:25.114Z,2.70
2023-03-14T13:02:52.064Z,2.80
2023-03-14T13:05:27.182Z,2.50
2023-03-14T13:07:57.007Z,2.50
2023-03-14T13:10:34.270Z,2.30
2023-03-14T13:13:12.481Z,2.50
2023-03-14T13:15:45.562Z,2.40
2023-03-14T13:18:16.760Z,5.10
2023-03-14T13:20:54.954Z,8.60
2023-03-14T13:23:28.288Z,11.50
2023-03-14T13:25:55.581Z,9.10
2023-03-14T13:28:23.056Z,7.80
2023-03-14T13:30:52.347Z,7.80
2023-03-14T13:33:22.267Z,7.40
2023-03-14T13:35:56.523Z,4.40
2023-03-14T13:38:26.121Z,3.90
2023-03-14T13:41:00.188Z,3.30
2023-03-14T13:43:33.055Z,2.50
2023-03-14T13:46:08.146Z,2.50
2023-03-14T13:48:43.287Z,3.00
2023-03-14T13:51:14.315Z,2.50
2023-03-14T13:53:56.099Z,2.70
2023-03-14T13:56:28.487Z,2.60
2023-03-14T13:58:55.922Z,2.20
2023-03-14T14:01:32.194Z,2.30
2023-03-14T14:04:23.311Z,2.10
2023-03-14T14:07:00.724Z,1.60
2023-03-14T14:09:29.879Z,1.90
2023-03-14T14:12:15.812Z,2.00
2023-03-14T14:14:55.981Z,2.40
2023-03-14T14:17:45.417Z,2.30
2023-03-14T14:20:40.028Z,2.40
2023-03-14T14:23:18.135Z,2.70
2023-03-14T14:25:45.400Z,2.50
2023-03-14T14:28:28.276Z,3.10
2023-03-14T14:31:27.264Z,2.70
2023-03-14T14:34:04.827Z,2.40
2023-03-14T14:36:42.774Z,3.20
2023-03-14T14:39:10.208Z,2.90
2023-03-14T14:41:42.292Z,2.70
2023-03-14T14:44:13.128Z,2.10
2023-03-14T14:46:40.606Z,1.70
2023-03-14T14:49:13.454Z,1.80
2023-03-14T14:51:48.969Z,1.20
2023-03-14T14:54:21.154Z,1.60
2023-03-14T14:56:53.898Z,1.30
2023-03-14T14:59:31.338Z,1.40
2023-03-14T15:02:03.452Z,1.50
2023-03-14T15:04:33.184Z,1.50
2023-03-14T15:06:59.861Z,1.80
2023-03-14T15:09:26.900Z,1.90
2023-03-14T15:11:53.845Z,1.50
2023-03-14T15:14:20.537Z,1.80
2023-03-14T15:16:47.316Z,1.70
2023-03-14T15:19:34.057Z,1.50
2023-03-14T15:22:00.935Z,1.50
2023-03-14T15:24:28.216Z,1.70
2023-03-14T15:26:54.975Z,2.00
2023-03-14T15:29:21.635Z,1.70
2023-03-14T15:31:48.460Z,1.80
2023-03-14T15:34:15.955Z,1.90
2023-03-14T15:36:42.628Z,1.80
2023-03-14T15:39:11.368Z,1.80
2023-03-14T15:41:38.236Z,1.80
2023-03-14T15:44:05.104Z,1.80
2023-03-14T15:46:31.775Z,2.10
2023-03-14T15:48:58.537Z,1.80
2023-03-14T15:51:25.235Z,2.10
2023-03-14T15:53:52.809Z,2.20
2023-03-14T15:56:21.331Z,2.00
2023-03-14T15:58:48.207Z,2.50
2023-03-14T16:01:17.171Z,3.60
2023-03-14T16:03:46.022Z,3.50
2023-03-14T16:06:13.934Z,2.20
2023-03-14T16:08:41.107Z,3.10
2023-03-14T16:11:07.822Z,2.90
2023-03-14T16:13:34.582Z,2.20
2023-03-14T16:16:03.397Z,2.50
2023-03-14T16:18:33.029Z,2.30
2023-03-14T16:21:08.778Z,2.50
2023-03-14T16:23:36.423Z,2.50
2023-03-14T16:26:08.499Z,2.60
2023-03-14T16:28:36.229Z,2.50
2023-03-14T16:31:05.733Z,1.90
2023-03-14T16:33:34.103Z,2.00
2023-03-14T16:36:06.170Z,2.20
2023-03-14T16:38:34.100Z,2.10
2023-03-14T16:41:04.427Z,2.10
2023-03-14T16:43:33.830Z,2.20
2023-03-14T16:46:01.391Z,2.20
2023-03-14T16:48:28.882Z,2.30
2023-03-14T16:50:55.976Z,2.60
2023-03-14T16:53:24.121Z,2.50
2023-03-14T16:55:51.556Z,2.40
2023-03-14T16:58:18.432Z,2.50
2023-03-14T17:00:46.661Z,2.30
2023-03-14T17:03:13.967Z,2.20
2023-03-14T17:05:52.327Z,2.60
2023-03-14T17:10:47.210Z,2.80
2023-03-14T17:13:13.960Z,2.80
2023-03-14T17:15:46.734Z,3.70
2023-03-14T17:18:13.465Z,3.10
2023-03-14T17:20:41.259Z,3.10
2023-03-14T17:23:08.980Z,3.20
2023-03-14T17:25:36.921Z,2.80
2023-03-14T17:28:04.601Z,3.70
2023-03-14T17:30:31.732Z,4.30
2023-03-14T17:32:58.793Z,4.50
2023-03-14T17:35:26.232Z,4.40
2023-03-14T17:37:52.972Z,4.30
2023-03-14T17:40:19.823Z,4.30
2023-03-14T17:42:46.542Z,3.60
2023-03-14T17:45:13.324Z,3.60
2023-03-14T17:47:40.146Z,4.00
2023-03-14T17:50:08.018Z,5.00
2023-03-14T17:52:36.628Z,4.30
2023-03-14T17:55:04.401Z,4.40
2023-03-14T17:57:31.719Z,4.30
2023-03-14T17:59:58.660Z,4.00
2023-03-14T18:02:25.938Z,4.60
2023-03-14T18:04:53.270Z,4.10
2023-03-14T18:07:21.005Z,3.60
2023-03-14T18:09:47.705Z,4.90
2023-03-14T18:12:14.942Z,4.90
2023-03-14T18:14:44.316Z,5.30
2023-03-14T18:17:13.368Z,5.60
2023-03-14T18:19:41.234Z,4.70
2023-03-14T18:22:08.972Z,4.50
2023-03-14T18:24:36.050Z,6.60
2023-03-14T18:27:03.297Z,6.70
2023-03-14T18:29:30.194Z,6.90
2023-03-14T18:31:58.426Z,7.40
2023-03-14T18:34:25.817Z,6.30
2023-03-14T18:36:52.736Z,6.00
2023-03-14T18:39:19.455Z,5.60
2023-03-14T18:41:46.118Z,4.90
2023-03-14T18:44:12.755Z,4.70
2023-03-14T18:46:39.678Z,4.70
2023-03-14T18:49:06.453Z,4.90
2023-03-14T18:51:33.994Z,4.90
2023-03-14T18:54:10.695Z,5.10
2023-03-14T18:56:39.674Z,5.10
2023-03-14T18:59:07.117Z,5.20
2023-03-14T19:01:34.405Z,4.40
2023-03-14T19:04:02.453Z,5.00
2023-03-14T19:06:33.037Z,4.60
2023-03-14T19:09:01.523Z,5.20
2023-03-14T19:11:28.864Z,4.70
2023-03-14T19:13:57.113Z,4.60
2023-03-14T19:16:27.871Z,5.60
2023-03-14T19:18:55.836Z,5.90
2023-03-14T19:21:31.837Z,6.00
2023-03-14T19:23:59.686Z,6.00
2023-03-14T19:26:28.880Z,5.50
2023-03-14T19:28:55.730Z,5.60
2023-03-14T19:31:22.882Z,10.70
2023-03-14T19:33:49.623Z,7.40
2023-03-14T19:36:28.658Z,8.00
2023-03-14T19:38:55.708Z,6.90
2023-03-14T19:41:24.547Z,6.40
2023-03-14T19:43:52.192Z,6.90
2023-03-14T19:46:18.943Z,7.30
2023-03-14T19:48:46.091Z,5.70
2023-03-14T19:51:14.009Z,5.80
2023-03-14T19:53:42.056Z,6.80
2023-03-14T19:56:10.748Z,6.40
2023-03-14T19:58:41.348Z,7.50
2023-03-14T20:01:09.004Z,7.60
2023-03-14T20:03:37.043Z,6.60
2023-03-14T20:06:08.675Z,7.30
2023-03-14T20:08:35.394Z,7.10
2023-03-14T20:11:06.872Z,6.50
2023-03-14T20:13:33.709Z,7.70
2023-03-14T20:16:04.059Z,7.00
2023-03-14T20:18:31.664Z,7.50
2023-03-14T20:20:59.053Z,8.40
2023-03-14T20:23:26.755Z,7.50
2023-03-14T20:25:58.516Z,8.30
2023-03-14T20:28:27.343Z,7.20
2023-03-14T20:30:55.991Z,6.80
2023-03-14T20:33:23.646Z,8.50
2023-03-14T20:35:59.053Z,9.60
2023-03-14T20:38:27.225Z,9.10
2023-03-14T20:41:00.729Z,11.30
2023-03-14T20:43:30.433Z,14.90
2023-03-14T20:46:03.685Z,11.60
2023-03-14T20:48:33.505Z,10.30
2023-03-14T20:51:02.888Z,10.00
2023-03-14T20:53:30.702Z,10.10
2023-03-14T20:55:59.091Z,10.90
2023-03-14T20:58:27.337Z,9.90
2023-03-14T21:00:58.028Z,9.80
2023-03-14T21:03:25.261Z,8.20
2023-03-14T21:05:54.136Z,9.40
2023-03-14T21:08:24.532Z,8.60
2023-03-14T21:10:53.784Z,9.20
2023-03-14T21:13:21.078Z,9.10
2023-03-14T21:15:48.192Z,11.10
2023-03-14T21:18:16.784Z,10.00
2023-03-14T21:20:44.706Z,8.80
2023-03-14T21:23:12.832Z,7.20
2023-03-14T21:25:41.894Z,8.70
2023-03-14T21:28:09.855Z,8.40
2023-03-14T21:30:36.639Z,9.60
2023-03-14T21:33:03.324Z,9.20
2023-03-14T21:35:30.428Z,8.90
2023-03-14T21:37:57.166Z,8.40
2023-03-14T21:40:24.622Z,8.10
2023-03-14T21:42:55.476Z,8.00
2023-03-14T21:45:25.994Z,8.50
2023-03-14T21:47:53.751Z,8.80
2023-03-14T21:50:23.485Z,10.00
2023-03-14T21:52:52.033Z,9.00
2023-03-14T21:55:18.897Z,8.40
2023-03-14T21:57:47.669Z,8.40
2023-03-14T22:00:18.168Z,9.20
2023-03-14T22:02:58.182Z,8.60
2023-03-14T22:05:30.095Z,8.80
2023-03-14T22:07:56.725Z,9.20
2023-03-14T22:10:23.336Z,8.20
2023-03-14T22:12:50.481Z,9.70
2023-03-14T22:15:17.192Z,8.20
2023-03-14T22:17:43.757Z,7.90
2023-03-14T22:20:13.749Z,8.80
2023-03-14T22:22:41.310Z,8.70
2023-03-14T22:25:08.400Z,8.20
2023-03-14T22:27:35.002Z,8.60
2023-03-14T22:30:01.786Z,7.80
2023-03-14T22:32:28.388Z,8.30
2023-03-14T22:34:56.028Z,7.80
2023-03-14T22:37:23.597Z,7.90
2023-03-14T22:39:50.130Z,7.80
2023-03-14T22:42:16.830Z,7.70
2023-03-14T22:44:43.497Z,7.40
2023-03-14T22:47:10.604Z,8.50
2023-03-14T22:49:37.270Z,7.90
2023-03-14T22:52:04.062Z,7.70
2023-03-14T22:54:30.595Z,7.00
2023-03-14T22:56:57.307Z,7.50
2023-03-14T22:59:24.103Z,7.50
2023-03-14T23:01:50.847Z,6.80
2023-03-14T23:04:17.503Z,10.20
2023-03-14T23:06:44.472Z,8.00
2023-03-14T23:09:12.054Z,7.70
2023-03-14T23:11:39.731Z,7.30
2023-03-14T23:14:06.479Z,6.70
2023-03-14T23:16:40.034Z,7.70
2023-03-14T23:19:07.034Z,7.70
2023-03-14T23:21:33.628Z,7.80
2023-03-14T23:24:05.599Z,8.00
2023-03-14T23:26:35.626Z,7.70
2023-03-14T23:29:06.623Z,7.60
2023-03-14T23:31:33.727Z,7.20
2023-03-14T23:34:00.594Z,7.30
2023-03-14T23:36:27.203Z,7.40
2023-03-14T23:38:53.780Z,7.40
2023-03-14T23:41:20.403Z,7.10
2023-03-14T23:43:48.364Z,8.50
2023-03-14T23:46:16.390Z,8.70
2023-03-14T23:48:46.782Z,8.40
2023-03-14T23:51:14.964Z,6.30
2023-03-14T23:53:41.943Z,6.90
2023-03-14T23:56:10.189Z,7.10
2023-03-14T23:58:36.770Z,6.80
